createdAt,value
2018-11-22T00:02:15.109Z,15.13
2018-11-22T00:07:39.185Z,15.50
2018-11-22T00:13:04.079Z,16.83
2018-11-22T00:18:10.737Z,16.70
2018-11-22T00:23:16.566Z,15.70
2018-11-22T00:33:50.459Z,17.30
2018-11-22T00:39:15.254Z,16.47
2018-11-22T00:44:39.267Z,17.60
2018-11-22T00:49:45.954Z,17.40
2018-11-22T00:55:47.400Z,16.73
2018-11-22T01:02:26.523Z,17.17
2018-11-22T01:06:38.482Z,18.60
2018-11-22T01:11:47.101Z,17.70
2018-11-22T01:16:52.144Z,17.10
2018-11-22T01:21:57.277Z,17.10
2018-11-22T01:27:02.383Z,18.00
2018-11-22T01:32:07.488Z,17.03
2018-11-22T01:37:12.612Z,17.23
2018-11-22T01:42:18.537Z,17.97
2018-11-22T01:47:23.675Z,18.37
2018-11-22T01:52:29.490Z,17.73
2018-11-22T01:57:36.691Z,19.70
2018-11-22T02:02:41.811Z,17.37
2018-11-22T02:07:47.717Z,18.33
2018-11-22T02:13:30.977Z,18.30
2018-11-22T02:18:54.837Z,17.77
2018-11-22T02:23:59.982Z,17.67
2018-11-22T02:29:24.803Z,17.80
2018-11-22T02:34:48.802Z,17.53
2018-11-22T02:40:14.252Z,16.87
2018-11-22T02:45:38.201Z,18.07
2018-11-22T03:02:21.998Z,18.67
2018-11-22T03:07:46.070Z,16.50
2018-11-22T03:12:51.207Z,18.00
2018-11-22T03:17:58.883Z,16.83
2018-11-22T03:23:22.890Z,18.23
2018-11-22T03:28:46.861Z,17.10
2018-11-22T03:34:10.835Z,17.93
2018-11-22T03:44:45.882Z,17.80
2018-11-22T03:55:41.843Z,16.93
2018-11-22T04:07:21.781Z,18.30
2018-11-22T04:12:26.930Z,18.63
2018-11-22T04:17:32.064Z,18.77
2018-11-22T04:22:37.087Z,18.70
2018-11-22T04:27:42.278Z,18.70
2018-11-22T04:32:47.754Z,18.13
2018-11-22T04:37:53.406Z,19.17
2018-11-22T04:42:58.683Z,17.97
2018-11-22T04:48:04.817Z,18.33
2018-11-22T04:53:09.859Z,18.37
2018-11-22T04:58:15.009Z,17.47
2018-11-22T05:03:20.449Z,19.27
2018-11-22T05:08:25.606Z,17.93
2018-11-22T05:19:20.904Z,19.10
2018-11-22T05:24:25.655Z,17.80
2018-11-22T05:29:49.617Z,18.77
2018-11-22T05:34:54.808Z,19.40
2018-11-22T05:40:56.223Z,18.90
2018-11-22T05:46:01.199Z,16.60
2018-11-22T05:51:10.539Z,20.37
2018-11-22T05:56:15.583Z,18.73
2018-11-22T06:01:20.687Z,19.43
2018-11-22T06:06:25.831Z,19.37
2018-11-22T06:11:30.836Z,18.47
2018-11-22T06:16:35.951Z,17.93
2018-11-22T06:21:41.045Z,21.60
2018-11-22T06:26:46.162Z,18.73
2018-11-22T06:31:51.162Z,19.67
2018-11-22T06:36:56.362Z,20.43
2018-11-22T06:42:02.331Z,20.80
2018-11-22T06:47:07.473Z,21.07
2018-11-22T06:52:31.383Z,22.70
2018-11-22T06:57:55.431Z,19.43
2018-11-22T07:03:19.396Z,20.27
2018-11-22T07:08:43.356Z,20.87
2018-11-22T07:14:26.171Z,18.90
2018-11-22T07:20:03.111Z,20.70
2018-11-22T07:25:16.622Z,21.57
2018-11-22T07:31:02.114Z,22.13
2018-11-22T07:36:26.795Z,21.57
2018-11-22T07:41:50.774Z,21.07
2018-11-22T07:47:34.127Z,18.80
2018-11-22T07:52:58.105Z,21.40
2018-11-22T08:03:52.559Z,20.33
2018-11-22T08:09:16.547Z,20.63
2018-11-22T08:14:40.517Z,22.17
2018-11-22T08:20:04.435Z,22.70
2018-11-22T08:30:59.178Z,22.53
2018-11-22T08:36:06.746Z,24.50
2018-11-22T08:41:11.199Z,24.70
2018-11-22T08:46:16.280Z,24.33
2018-11-22T08:51:22.076Z,24.23
2018-11-22T08:56:27.891Z,24.30
2018-11-22T09:01:33.743Z,21.80
2018-11-22T09:06:38.795Z,23.07
2018-11-22T09:11:45.011Z,22.00
2018-11-22T09:16:50.153Z,23.47
2018-11-22T09:21:56.146Z,22.77
2018-11-22T09:27:01.266Z,22.10
2018-11-22T09:32:09.210Z,23.13
2018-11-22T09:37:17.093Z,22.63
2018-11-22T09:42:23.851Z,22.97
2018-11-22T09:47:28.992Z,21.80
2018-11-22T09:52:35.712Z,21.53
2018-11-22T09:57:45.186Z,22.57
2018-11-22T10:02:51.225Z,21.67
2018-11-22T10:07:56.340Z,21.30
2018-11-22T10:13:01.487Z,20.13
2018-11-22T10:18:07.575Z,20.17
2018-11-22T10:23:14.309Z,19.67
2018-11-22T10:28:20.242Z,20.20
2018-11-22T10:33:26.937Z,18.47
2018-11-22T10:38:32.053Z,19.40
2018-11-22T10:43:37.698Z,19.90
2018-11-22T10:48:43.615Z,20.90
2018-11-22T10:53:49.561Z,21.47
2018-11-22T10:58:55.578Z,20.97
2018-11-22T11:04:18.746Z,19.93
2018-11-22T11:09:23.829Z,25.93
2018-11-22T11:14:29.745Z,19.37
2018-11-22T11:19:34.873Z,20.47
2018-11-22T11:24:42.134Z,21.10
2018-11-22T11:29:48.759Z,21.70
2018-11-22T12:16:07.861Z,20.30
2018-11-22T12:21:12.198Z,20.37
2018-11-22T12:26:16.480Z,20.60
2018-11-22T12:31:20.101Z,20.53
2018-11-22T12:36:25.256Z,19.47
2018-11-22T12:41:28.814Z,19.73
2018-11-22T12:46:32.418Z,21.10
2018-11-22T12:51:36.109Z,22.23
2018-11-22T12:56:39.969Z,21.47
2018-11-22T13:01:43.612Z,21.53
2018-11-22T13:06:47.203Z,20.10
2018-11-22T13:11:50.977Z,23.20
2018-11-22T13:16:54.578Z,20.30
2018-11-22T13:21:58.221Z,21.87
2018-11-22T13:27:01.828Z,20.63
2018-11-22T13:32:05.649Z,20.50
2018-11-22T13:37:10.233Z,20.37
2018-11-22T13:42:13.908Z,21.30
2018-11-22T13:47:17.556Z,21.83
2018-11-22T13:52:22.093Z,23.67
2018-11-22T13:57:25.672Z,22.00
2018-11-22T14:02:29.296Z,20.57
2018-11-22T14:07:33.120Z,21.43
2018-11-22T14:12:37.128Z,22.00
2018-11-22T14:17:41.052Z,22.23
2018-11-22T14:22:46.441Z,22.70
2018-11-22T14:27:51.408Z,22.83
2018-11-22T14:32:54.986Z,21.47
2018-11-22T14:37:59.568Z,23.77
2018-11-22T14:43:04.352Z,21.70
2018-11-22T14:48:08.658Z,23.97
2018-11-22T14:53:16.070Z,23.43
2018-11-22T14:58:21.236Z,21.30
2018-11-22T15:03:25.735Z,23.80
2018-11-22T15:08:30.379Z,23.57
2018-11-22T15:13:33.981Z,23.57
2018-11-22T15:18:37.602Z,23.47
2018-11-22T15:23:41.255Z,26.80
2018-11-22T15:28:44.823Z,26.57
2018-11-22T15:33:50.779Z,25.47
2018-11-22T15:38:54.336Z,27.40
2018-11-22T15:44:02.002Z,27.30
2018-11-22T15:49:05.812Z,27.30
2018-11-22T15:54:10.112Z,28.50
2018-11-22T15:59:13.799Z,30.67
2018-11-22T16:04:17.432Z,35.30
2018-11-22T16:09:21.381Z,32.93
2018-11-22T16:14:24.961Z,29.77
2018-11-22T16:19:28.585Z,30.37
2018-11-22T16:24:32.575Z,31.53
2018-11-22T16:29:38.053Z,29.43
2018-11-22T16:34:42.234Z,32.43
2018-11-22T16:39:45.937Z,33.17
2018-11-22T16:44:49.621Z,30.63
2018-11-22T16:49:53.835Z,30.80
2018-11-22T16:54:57.440Z,37.00
2018-11-22T17:00:01.404Z,44.43
2018-11-22T17:05:05.152Z,43.83
2018-11-22T17:10:11.221Z,43.20
2018-11-22T17:15:16.215Z,43.80
2018-11-22T17:20:20.739Z,42.67
2018-11-22T17:25:26.065Z,44.90
2018-11-22T17:30:31.157Z,43.67
2018-11-22T17:40:51.991Z,42.00
2018-11-22T17:45:55.688Z,44.37
2018-11-22T17:50:59.480Z,44.70
2018-11-22T17:56:03.137Z,44.87
2018-11-22T18:01:06.724Z,43.90
2018-11-22T18:06:10.392Z,39.17
2018-11-22T18:11:13.985Z,41.53
2018-11-22T18:16:17.894Z,39.07
2018-11-22T18:21:21.484Z,35.43
2018-11-22T18:26:25.452Z,37.30
2018-11-22T18:31:29.643Z,38.30
2018-11-22T18:36:33.473Z,35.27
2018-11-22T18:41:37.279Z,35.00
2018-11-22T18:46:41.158Z,33.40
2018-11-22T18:51:44.810Z,34.63
2018-11-22T18:56:48.492Z,34.50
2018-11-22T19:01:52.220Z,30.77
2018-11-22T19:07:00.027Z,35.00
2018-11-22T19:12:03.728Z,32.60
2018-11-22T19:17:07.328Z,30.50
2018-11-22T19:22:11.028Z,44.33
2018-11-22T19:27:14.763Z,40.40
2018-11-22T19:32:18.915Z,38.40
2018-11-22T19:37:23.931Z,33.97
2018-11-22T19:42:27.536Z,30.50
2018-11-22T19:47:31.212Z,32.73
2018-11-22T19:52:35.174Z,31.50
2018-11-22T19:57:39.149Z,31.57
2018-11-22T20:02:43.624Z,37.07
2018-11-22T20:07:49.018Z,28.07
2018-11-22T20:12:52.821Z,31.40
2018-11-22T20:17:57.079Z,29.00
2018-11-22T20:28:12.267Z,27.50
2018-11-22T20:33:16.422Z,28.80
2018-11-22T20:38:21.433Z,28.03
2018-11-22T20:43:25.095Z,29.27
2018-11-22T20:48:29.022Z,29.60
2018-11-22T20:53:32.783Z,29.57
2018-11-22T20:58:36.420Z,29.47
2018-11-22T21:03:40.017Z,28.20
2018-11-22T21:08:48.666Z,28.07
2018-11-22T21:13:48.010Z,28.50
2018-11-22T21:18:51.796Z,26.40
2018-11-22T21:23:56.763Z,28.70
2018-11-22T21:29:04.748Z,33.40
2018-11-22T21:34:08.607Z,28.20
2018-11-22T21:39:13.064Z,27.37
2018-11-22T21:44:16.771Z,25.67
2018-11-22T21:49:20.866Z,25.50
2018-11-22T21:54:25.396Z,23.03
2018-11-22T21:59:30.571Z,22.60
2018-11-22T22:04:34.467Z,22.50
2018-11-22T22:09:38.642Z,23.07
2018-11-22T22:14:42.506Z,23.77
2018-11-22T22:19:46.403Z,22.93
2018-11-22T22:24:50.250Z,24.30
2018-11-22T22:29:54.169Z,24.87
2018-11-22T22:34:57.964Z,22.87
2018-11-22T22:40:03.788Z,22.90
2018-11-22T22:45:06.567Z,21.90
2018-11-22T22:50:12.930Z,21.73
2018-11-22T22:55:16.517Z,21.60
2018-11-22T23:00:27.609Z,22.43
2018-11-22T23:05:31.683Z,20.97
2018-11-22T23:10:38.352Z,20.80
2018-11-22T23:15:42.207Z,21.03
2018-11-22T23:20:46.716Z,20.33
2018-11-22T23:25:50.431Z,21.70
2018-11-22T23:30:54.023Z,21.47
2018-11-22T23:35:57.635Z,21.77
2018-11-22T23:41:01.241Z,20.97
2018-11-22T23:46:04.861Z,22.20
2018-11-22T23:51:08.484Z,21.07
2018-11-22T23:56:12.517Z,21.07
